createdAt,value
2023-04-20T00:02:22.007Z,6.63
2023-04-20T00:04:50.177Z,6.59
2023-04-20T00:07:18.241Z,6.52
2023-04-20T00:09:46.568Z,6.53
2023-04-20T00:12:14.610Z,6.61
2023-04-20T00:14:42.667Z,6.51
2023-04-20T00:17:12.139Z,6.44
2023-04-20T00:19:40.452Z,6.49
2023-04-20T00:22:10.762Z,6.48
2023-04-20T00:24:38.758Z,6.41
2023-04-20T00:27:06.888Z,6.38
2023-04-20T00:29:35.280Z,6.37
2023-04-20T00:32:03.339Z,6.37
2023-04-20T00:34:32.808Z,6.38
2023-04-20T00:37:01.072Z,6.31
2023-04-20T00:39:29.116Z,6.33
2023-04-20T00:42:05.298Z,6.29
2023-04-20T00:44:33.819Z,6.35
2023-04-20T00:47:02.056Z,6.31
2023-04-20T00:49:32.969Z,6.27
2023-04-20T00:52:02.076Z,6.25
2023-04-20T00:54:31.393Z,6.26
2023-04-20T00:57:00.796Z,6.25
2023-04-20T00:59:29.013Z,6.23
2023-04-20T01:01:57.143Z,6.20
2023-04-20T01:04:26.269Z,6.21
2023-04-20T01:06:58.227Z,6.22
2023-04-20T01:09:26.304Z,6.20
2023-04-20T01:11:54.459Z,6.20
2023-04-20T01:14:22.527Z,6.16
2023-04-20T01:16:52.073Z,6.25
2023-04-20T01:19:21.632Z,6.29
2023-04-20T01:21:52.508Z,6.29
2023-04-20T01:24:21.938Z,6.29
2023-04-20T01:26:50.018Z,6.31
2023-04-20T01:29:18.190Z,6.38
2023-04-20T01:31:46.624Z,6.43
2023-04-20T01:34:15.305Z,6.40
2023-04-20T01:36:43.391Z,6.44
2023-04-20T01:39:11.980Z,6.47
2023-04-20T01:41:41.853Z,6.47
2023-04-20T01:44:09.930Z,6.44
2023-04-20T01:46:39.377Z,6.40
2023-04-20T01:49:08.102Z,6.44
2023-04-20T01:51:36.705Z,6.35
2023-04-20T01:54:04.905Z,6.32
2023-04-20T01:56:32.974Z,6.25
2023-04-20T01:59:02.374Z,6.37
2023-04-20T02:01:30.542Z,6.28
2023-04-20T02:03:59.083Z,6.18
2023-04-20T02:06:27.226Z,6.17
2023-04-20T02:08:55.292Z,6.12
2023-04-20T02:11:23.508Z,6.10
2023-04-20T02:13:53.768Z,6.15
2023-04-20T02:16:24.098Z,6.12
2023-04-20T02:18:52.192Z,6.10
2023-04-20T02:21:20.583Z,6.06
2023-04-20T02:23:48.612Z,6.06
2023-04-20T02:26:18.900Z,6.16
2023-04-20T02:28:47.209Z,6.09
2023-04-20T02:31:15.268Z,6.15
2023-04-20T02:33:44.758Z,6.14
2023-04-20T02:36:12.841Z,6.18
2023-04-20T02:38:40.906Z,6.22
2023-04-20T02:41:08.939Z,6.20
2023-04-20T02:43:40.519Z,6.24
2023-04-20T02:46:08.695Z,6.21
2023-04-20T02:48:36.820Z,6.24
2023-04-20T02:51:06.318Z,6.31
2023-04-20T02:53:34.419Z,6.34
2023-04-20T02:56:02.507Z,6.34
2023-04-20T02:58:30.811Z,6.33
2023-04-20T03:01:01.327Z,6.37
2023-04-20T03:03:29.859Z,6.37
2023-04-20T03:05:58.269Z,6.46
2023-04-20T03:08:27.698Z,6.47
2023-04-20T03:10:55.737Z,6.47
2023-04-20T03:13:23.896Z,6.47
2023-04-20T03:15:55.034Z,6.47
2023-04-20T03:18:23.120Z,6.52
2023-04-20T03:20:51.199Z,6.49
2023-04-20T03:23:19.346Z,6.52
2023-04-20T03:25:49.143Z,6.54
2023-04-20T03:28:17.340Z,6.52
2023-04-20T03:30:45.434Z,6.57
2023-04-20T03:33:13.474Z,6.57
2023-04-20T03:35:43.148Z,6.54
2023-04-20T03:38:11.570Z,6.59
2023-04-20T03:40:39.677Z,6.58
2023-04-20T03:43:09.090Z,6.54
2023-04-20T03:45:37.210Z,6.52
2023-04-20T03:48:06.164Z,6.54
2023-04-20T03:50:34.260Z,6.53
2023-04-20T03:53:02.579Z,6.52
2023-04-20T03:55:30.932Z,6.52
2023-04-20T03:57:59.104Z,6.55
2023-04-20T04:00:28.527Z,6.52
2023-04-20T04:02:56.724Z,6.54
2023-04-20T04:05:26.472Z,6.52
2023-04-20T04:07:54.676Z,6.56
2023-04-20T04:10:22.822Z,6.53
2023-04-20T04:12:50.796Z,6.52
2023-04-20T04:15:19.618Z,6.53
2023-04-20T04:17:49.797Z,6.53
2023-04-20T04:20:20.783Z,6.54
2023-04-20T04:22:52.108Z,6.57
2023-04-20T04:25:20.389Z,6.58
2023-04-20T04:27:48.812Z,6.60
2023-04-20T04:30:17.639Z,6.63
2023-04-20T04:32:46.574Z,6.58
2023-04-20T04:35:16.221Z,6.57
2023-04-20T04:37:47.572Z,6.57
2023-04-20T04:40:16.280Z,6.60
2023-04-20T04:42:45.469Z,6.63
2023-04-20T04:45:14.421Z,6.59
2023-04-20T04:47:43.890Z,6.65
2023-04-20T04:50:13.042Z,6.65
2023-04-20T04:52:46.558Z,6.64
2023-04-20T04:55:16.277Z,6.68
2023-04-20T04:57:44.755Z,6.70
2023-04-20T05:00:13.787Z,6.72
2023-04-20T05:02:42.004Z,6.80
2023-04-20T05:05:10.571Z,6.80
2023-04-20T05:07:40.241Z,6.77
2023-04-20T05:10:10.218Z,6.82
2023-04-20T05:12:38.727Z,6.84
2023-04-20T05:15:07.928Z,6.83
2023-04-20T05:17:36.254Z,6.90
2023-04-20T05:20:06.358Z,6.86
2023-04-20T05:22:34.492Z,6.85
2023-04-20T05:25:02.552Z,6.87
2023-04-20T05:27:32.133Z,6.93
2023-04-20T05:30:09.466Z,6.92
2023-04-20T05:32:45.144Z,6.91
2023-04-20T05:35:13.234Z,6.93
2023-04-20T05:37:41.234Z,6.95
2023-04-20T05:40:11.254Z,6.96
2023-04-20T05:42:40.992Z,7.05
2023-04-20T05:45:10.992Z,7.04
2023-04-20T05:47:39.149Z,7.08
2023-04-20T05:50:08.722Z,7.09
2023-04-20T05:52:36.792Z,7.09
2023-04-20T05:55:05.285Z,7.16
2023-04-20T05:57:33.451Z,7.14
2023-04-20T06:00:03.834Z,7.23
2023-04-20T06:02:32.094Z,7.26
2023-04-20T06:05:01.243Z,7.33
2023-04-20T06:07:29.402Z,7.34
2023-04-20T06:09:57.472Z,7.34
2023-04-20T06:12:26.770Z,7.34
2023-04-20T06:14:57.144Z,7.32
2023-04-20T06:17:26.908Z,7.39
2023-04-20T06:19:55.358Z,7.40
2023-04-20T06:22:23.417Z,7.41
2023-04-20T06:24:51.432Z,7.48
2023-04-20T06:27:19.629Z,7.49
2023-04-20T06:29:47.782Z,7.63
2023-04-20T06:32:18.946Z,7.72
2023-04-20T06:34:48.486Z,7.79
2023-04-20T06:37:16.593Z,7.81
2023-04-20T06:39:44.964Z,7.84
2023-04-20T06:42:13.870Z,7.84
2023-04-20T06:44:41.934Z,7.81
2023-04-20T06:47:10.093Z,7.83
2023-04-20T06:49:39.447Z,7.81
2023-04-20T06:52:08.910Z,7.90
2023-04-20T06:54:37.080Z,7.82
2023-04-20T06:57:05.284Z,7.90
2023-04-20T06:59:33.356Z,7.84
2023-04-20T07:02:01.725Z,7.76
2023-04-20T07:04:30.007Z,7.91
2023-04-20T07:06:58.035Z,8.06
2023-04-20T07:09:27.697Z,8.09
2023-04-20T07:11:56.436Z,8.02
2023-04-20T07:14:24.575Z,7.98
2023-04-20T07:16:53.563Z,7.97
2023-04-20T07:19:21.728Z,7.98
2023-04-20T07:21:49.805Z,7.98
2023-04-20T07:24:17.994Z,8.06
2023-04-20T07:26:47.585Z,8.00
2023-04-20T07:29:15.899Z,8.02
2023-04-20T07:31:44.149Z,8.06
2023-04-20T07:34:12.323Z,8.12
2023-04-20T07:36:40.460Z,8.22
2023-04-20T07:39:08.824Z,8.28
2023-04-20T07:41:37.629Z,8.21
2023-04-20T07:44:07.250Z,8.26
2023-04-20T07:46:35.396Z,8.38
2023-04-20T07:49:03.612Z,8.51
2023-04-20T07:51:33.387Z,8.55
2023-04-20T07:54:01.580Z,8.51
2023-04-20T07:56:29.575Z,8.59
2023-04-20T07:58:57.978Z,8.68
2023-04-20T08:01:27.488Z,8.75
2023-04-20T08:03:56.092Z,8.87
2023-04-20T08:06:24.439Z,8.92
2023-04-20T08:08:53.060Z,9.04
2023-04-20T08:11:21.759Z,9.07
2023-04-20T08:13:49.924Z,9.06
2023-04-20T08:16:18.003Z,9.00
2023-04-20T08:18:47.490Z,8.98
2023-04-20T08:21:15.596Z,8.97
2023-04-20T08:23:43.892Z,9.06
2023-04-20T08:26:16.886Z,9.01
2023-04-20T08:28:45.434Z,9.22
2023-04-20T08:31:16.300Z,9.32
2023-04-20T08:33:44.574Z,9.25
2023-04-20T08:36:14.040Z,9.21
2023-04-20T08:38:42.137Z,9.34
2023-04-20T08:41:13.164Z,9.13
2023-04-20T08:43:41.683Z,9.04
2023-04-20T08:46:14.715Z,9.07
2023-04-20T08:48:46.588Z,9.14
2023-04-20T08:51:17.061Z,9.31
2023-04-20T08:53:45.623Z,9.17
2023-04-20T08:56:13.613Z,9.22
2023-04-20T08:58:42.326Z,9.23
2023-04-20T09:01:14.098Z,9.29
2023-04-20T09:03:46.026Z,9.32
2023-04-20T09:06:22.210Z,9.25
2023-04-20T09:08:51.370Z,9.44
2023-04-20T09:11:23.741Z,9.33
2023-04-20T09:14:02.281Z,9.32
2023-04-20T09:16:30.542Z,9.31
2023-04-20T09:18:58.996Z,9.14
2023-04-20T09:21:31.529Z,9.28
2023-04-20T09:24:01.812Z,9.29
2023-04-20T09:26:33.523Z,9.36
2023-04-20T09:29:01.856Z,9.21
2023-04-20T09:31:30.023Z,9.06
2023-04-20T09:33:59.323Z,9.03
2023-04-20T09:36:38.836Z,9.06
2023-04-20T09:39:09.389Z,9.02
2023-04-20T09:41:38.382Z,8.85
2023-04-20T09:44:07.655Z,8.91
2023-04-20T09:46:40.859Z,9.03
2023-04-20T09:49:10.167Z,9.05
2023-04-20T09:51:45.171Z,9.19
2023-04-20T09:54:15.961Z,9.28
2023-04-20T09:56:48.026Z,9.37
2023-04-20T09:59:20.145Z,9.68
2023-04-20T10:01:48.686Z,9.56
2023-04-20T10:04:17.188Z,9.73
2023-04-20T10:06:57.143Z,9.91
2023-04-20T10:09:27.463Z,10.04
2023-04-20T10:12:07.542Z,9.94
2023-04-20T10:14:36.346Z,10.12
2023-04-20T10:17:06.570Z,10.24
2023-04-20T10:19:39.749Z,10.13
2023-04-20T10:22:10.433Z,10.17
2023-04-20T10:24:39.233Z,10.39
2023-04-20T10:27:18.235Z,10.45
2023-04-20T10:29:46.502Z,10.45
2023-04-20T10:32:23.855Z,10.80
2023-04-20T10:35:03.473Z,10.96
2023-04-20T10:37:33.243Z,11.15
2023-04-20T10:40:01.668Z,11.19
2023-04-20T10:42:30.530Z,10.95
2023-04-20T10:44:58.727Z,10.91
2023-04-20T10:47:31.508Z,11.03
2023-04-20T10:50:09.327Z,11.09
2023-04-20T10:52:40.190Z,11.32
2023-04-20T10:55:19.796Z,11.23
2023-04-20T10:57:48.092Z,11.47
2023-04-20T11:00:20.536Z,11.31
2023-04-20T11:02:50.978Z,11.38
2023-04-20T11:05:19.775Z,11.35
2023-04-20T11:07:56.147Z,11.18
2023-04-20T11:10:39.793Z,10.96
2023-04-20T11:13:08.500Z,10.90
2023-04-20T11:15:36.888Z,10.82
2023-04-20T11:18:08.877Z,10.77
2023-04-20T11:20:52.013Z,10.94
2023-04-20T11:23:22.902Z,10.88
2023-04-20T11:25:55.452Z,10.85
2023-04-20T11:28:25.934Z,10.77
2023-04-20T11:30:54.095Z,10.87
2023-04-20T11:33:29.398Z,10.85
2023-04-20T11:36:01.015Z,10.92
2023-04-20T11:38:34.281Z,10.98
2023-04-20T11:41:07.796Z,11.08
2023-04-20T11:43:36.488Z,10.86
2023-04-20T11:46:04.787Z,10.91
2023-04-20T11:48:33.184Z,10.94
2023-04-20T11:51:01.242Z,10.90
2023-04-20T11:53:29.362Z,10.67
2023-04-20T11:55:58.953Z,10.89
2023-04-20T11:58:29.792Z,10.81
2023-04-20T12:00:58.071Z,10.89
2023-04-20T12:03:26.504Z,10.76
2023-04-20T12:05:54.717Z,10.73
2023-04-20T12:08:24.123Z,10.92
2023-04-20T12:10:52.204Z,10.81
2023-04-20T12:13:24.714Z,10.83
2023-04-20T12:15:55.045Z,10.84
2023-04-20T12:18:23.320Z,10.77
2023-04-20T12:20:51.666Z,10.66
2023-04-20T12:23:19.837Z,10.63
2023-04-20T12:25:47.858Z,10.63
2023-04-20T12:28:16.000Z,10.61
2023-04-20T12:30:45.761Z,10.67
2023-04-20T12:33:16.187Z,10.64
2023-04-20T12:35:45.078Z,10.67
2023-04-20T12:38:14.562Z,10.69
2023-04-20T12:40:42.848Z,10.52
2023-04-20T12:43:10.935Z,10.66
2023-04-20T12:45:38.983Z,10.67
2023-04-20T12:48:08.705Z,10.77
2023-04-20T12:50:36.766Z,10.99
2023-04-20T12:53:04.910Z,10.95
2023-04-20T12:55:33.146Z,10.97
2023-04-20T12:58:01.152Z,10.95
2023-04-20T13:00:29.372Z,10.85
2023-04-20T13:02:57.551Z,10.98
2023-04-20T13:05:27.123Z,10.96
2023-04-20T13:07:55.200Z,11.12
2023-04-20T13:10:23.714Z,11.36
2023-04-20T13:12:52.598Z,11.40
2023-04-20T13:15:32.059Z,11.23
2023-04-20T13:18:06.268Z,11.32
2023-04-20T13:20:35.875Z,11.30
2023-04-20T13:23:04.746Z,11.43
2023-04-20T13:25:34.126Z,11.62
2023-04-20T13:28:05.127Z,11.45
2023-04-20T13:30:33.689Z,11.35
2023-04-20T13:33:01.828Z,11.40
2023-04-20T13:35:30.117Z,11.26
2023-04-20T13:37:59.578Z,11.44
2023-04-20T13:40:27.665Z,11.32
2023-04-20T13:42:55.764Z,11.22
2023-04-20T13:45:24.240Z,11.89
2023-04-20T13:47:52.459Z,11.88
2023-04-20T13:50:20.461Z,12.48
2023-04-20T13:52:51.631Z,13.06
2023-04-20T13:55:21.408Z,13.46
2023-04-20T13:57:49.442Z,13.32
2023-04-20T14:00:17.944Z,13.01
2023-04-20T14:02:46.141Z,12.72
2023-04-20T14:05:14.213Z,12.68
2023-04-20T14:07:42.363Z,12.22
2023-04-20T14:10:10.993Z,12.38
2023-04-20T14:12:40.556Z,12.90
2023-04-20T14:15:09.542Z,13.11
2023-04-20T14:17:40.417Z,13.37
2023-04-20T14:20:10.002Z,13.50
2023-04-20T14:22:38.048Z,13.42
2023-04-20T14:25:06.686Z,13.10
2023-04-20T14:27:34.680Z,13.02
2023-04-20T14:30:04.651Z,12.94
2023-04-20T14:32:32.850Z,12.70
2023-04-20T14:35:05.589Z,12.66
2023-04-20T14:37:34.128Z,12.63
2023-04-20T14:40:02.219Z,12.42
2023-04-20T14:42:30.601Z,12.29
2023-04-20T14:44:58.671Z,12.45
2023-04-20T14:47:28.191Z,13.14
2023-04-20T14:49:56.460Z,13.41
2023-04-20T14:52:24.461Z,13.66
2023-04-20T14:54:52.613Z,13.66
2023-04-20T14:57:20.658Z,13.37
2023-04-20T14:59:48.877Z,13.28
2023-04-20T15:02:18.350Z,12.89
2023-04-20T15:04:48.681Z,12.97
2023-04-20T15:08:27.138Z,12.75
2023-04-20T15:10:57.065Z,12.80
2023-04-20T15:13:28.117Z,12.72
2023-04-20T15:15:56.141Z,12.85
2023-04-20T15:18:24.169Z,13.04
2023-04-20T15:20:56.698Z,12.95
2023-04-20T15:23:24.790Z,13.12
2023-04-20T15:25:53.602Z,12.97
2023-04-20T15:28:24.700Z,13.09
2023-04-20T15:30:52.719Z,13.20
2023-04-20T15:33:20.927Z,13.19
2023-04-20T15:35:50.367Z,13.04
2023-04-20T15:38:19.776Z,12.90
2023-04-20T15:40:47.852Z,12.88
2023-04-20T15:43:15.879Z,12.95
2023-04-20T15:45:44.982Z,12.95
2023-04-20T15:48:13.134Z,12.97
2023-04-20T15:50:41.191Z,12.96
2023-04-20T15:53:09.260Z,12.84
2023-04-20T15:55:41.104Z,12.91
2023-04-20T15:58:09.191Z,13.10
2023-04-20T16:00:37.618Z,13.14
2023-04-20T16:03:08.609Z,13.16
2023-04-20T16:05:36.966Z,13.05
2023-04-20T16:08:05.476Z,12.89
2023-04-20T16:10:33.481Z,12.65
2023-04-20T16:13:03.654Z,12.47
2023-04-20T16:15:32.035Z,12.43
2023-04-20T16:18:00.346Z,12.36
2023-04-20T16:20:28.420Z,12.37
2023-04-20T16:22:56.873Z,12.46
2023-04-20T16:25:25.664Z,12.57
2023-04-20T16:27:53.723Z,12.55
2023-04-20T16:30:23.363Z,12.62
2023-04-20T16:32:51.428Z,12.57
2023-04-20T16:35:19.513Z,12.57
2023-04-20T16:37:47.907Z,12.47
2023-04-20T16:40:16.014Z,12.55
2023-04-20T16:42:44.200Z,12.65
2023-04-20T16:45:12.376Z,12.39
2023-04-20T16:47:41.869Z,12.23
2023-04-20T16:50:11.819Z,12.16
2023-04-20T16:52:39.828Z,12.24
2023-04-20T16:55:09.000Z,12.29
2023-04-20T16:57:36.991Z,12.34
2023-04-20T17:00:06.691Z,12.32
2023-04-20T17:02:36.140Z,12.20
2023-04-20T17:05:06.790Z,12.11
2023-04-20T17:07:36.375Z,12.19
2023-04-20T17:10:06.771Z,12.09
2023-04-20T17:12:34.924Z,12.15
2023-04-20T17:15:03.010Z,12.18
2023-04-20T17:17:31.419Z,12.11
2023-04-20T17:19:59.515Z,12.04
2023-04-20T17:22:29.030Z,11.99
2023-04-20T17:24:57.059Z,12.03
2023-04-20T17:27:25.265Z,11.92
2023-04-20T17:29:53.330Z,11.97
2023-04-20T17:32:21.483Z,12.00
2023-04-20T17:34:51.470Z,11.94
2023-04-20T17:37:20.260Z,11.95
2023-04-20T17:39:49.889Z,11.93
2023-04-20T17:42:18.733Z,11.93
2023-04-20T17:44:46.762Z,11.89
2023-04-20T17:47:15.303Z,11.77
2023-04-20T17:49:43.864Z,11.75
2023-04-20T17:52:15.270Z,11.68
2023-04-20T17:54:43.652Z,11.69
2023-04-20T17:57:14.117Z,11.64
2023-04-20T17:59:42.879Z,11.67
2023-04-20T18:02:11.868Z,11.56
2023-04-20T18:04:43.339Z,11.59
2023-04-20T18:07:13.194Z,11.66
2023-04-20T18:09:41.371Z,11.61
2023-04-20T18:12:10.779Z,11.47
2023-04-20T18:14:41.241Z,11.40
2023-04-20T18:17:12.667Z,11.41
2023-04-20T18:19:41.329Z,11.36
2023-04-20T18:22:09.722Z,11.22
2023-04-20T18:24:38.107Z,11.26
2023-04-20T18:27:06.178Z,11.25
2023-04-20T18:29:34.689Z,11.11
2023-04-20T18:32:04.288Z,11.05
2023-04-20T18:34:32.521Z,10.86
2023-04-20T18:37:00.668Z,10.76
2023-04-20T18:39:30.056Z,10.73
2023-04-20T18:41:58.250Z,10.61
2023-04-20T18:44:28.365Z,10.67
2023-04-20T18:46:56.619Z,10.61
2023-04-20T18:49:26.235Z,10.47
2023-04-20T18:51:54.494Z,10.47
2023-04-20T18:54:22.494Z,10.44
2023-04-20T18:56:50.657Z,10.39
2023-04-20T18:59:18.797Z,10.32
2023-04-20T19:01:46.864Z,10.19
2023-04-20T19:04:14.993Z,10.16
2023-04-20T19:06:44.615Z,10.09
2023-04-20T19:09:12.741Z,9.95
2023-04-20T19:11:40.851Z,9.90
2023-04-20T19:14:09.022Z,9.85
2023-04-20T19:16:37.112Z,9.79
2023-04-20T19:19:05.732Z,9.76
2023-04-20T19:21:34.066Z,9.77
2023-04-20T19:24:03.557Z,9.79
2023-04-20T19:26:31.734Z,9.66
2023-04-20T19:29:00.517Z,9.64
2023-04-20T19:31:34.060Z,9.49
2023-04-20T19:34:02.285Z,9.60
2023-04-20T19:36:30.489Z,9.60
2023-04-20T19:38:58.624Z,9.54
2023-04-20T19:41:28.254Z,9.54
2023-04-20T19:43:56.445Z,9.36
2023-04-20T19:46:24.501Z,9.37
2023-04-20T19:48:52.574Z,9.29
2023-04-20T19:51:22.319Z,9.19
2023-04-20T19:53:50.444Z,9.19
2023-04-20T19:56:21.586Z,9.17
2023-04-20T19:58:51.036Z,9.10
2023-04-20T20:01:19.435Z,9.03
2023-04-20T20:03:47.948Z,9.02
2023-04-20T20:06:16.432Z,9.07
2023-04-20T20:08:44.526Z,9.02
2023-04-20T20:11:15.004Z,8.98
2023-04-20T20:13:43.090Z,8.95
2023-04-20T20:16:12.624Z,8.93
2023-04-20T20:18:40.874Z,8.86
2023-04-20T20:21:08.979Z,8.88
2023-04-20T20:23:37.167Z,8.82
2023-04-20T20:26:05.351Z,8.78
2023-04-20T20:28:33.403Z,8.74
2023-04-20T20:31:01.577Z,8.75
2023-04-20T20:33:31.186Z,8.72
2023-04-20T20:36:01.477Z,8.69
2023-04-20T20:38:31.002Z,8.57
2023-04-20T20:40:59.699Z,8.65
2023-04-20T20:43:28.525Z,8.63
2023-04-20T20:45:56.610Z,8.58
2023-04-20T20:48:24.778Z,8.59
2023-04-20T20:50:54.176Z,8.64
2023-04-20T20:53:22.319Z,8.73
2023-04-20T20:55:50.546Z,8.60
2023-04-20T20:58:18.791Z,8.65
2023-04-20T21:00:47.562Z,8.57
2023-04-20T21:03:15.953Z,8.59
2023-04-20T21:05:44.314Z,8.55
2023-04-20T21:08:13.964Z,8.46
2023-04-20T21:10:42.035Z,8.45
2023-04-20T21:13:10.057Z,8.50
2023-04-20T21:15:38.132Z,8.48
2023-04-20T21:18:06.323Z,8.43
2023-04-20T21:20:35.392Z,8.42
2023-04-20T21:23:03.461Z,8.41
2023-04-20T21:25:32.971Z,8.43
2023-04-20T21:28:01.019Z,8.47
2023-04-20T21:30:29.420Z,8.49
2023-04-20T21:32:57.495Z,8.49
2023-04-20T21:35:25.836Z,8.48
2023-04-20T21:37:53.914Z,8.46
2023-04-20T21:40:22.762Z,8.42
2023-04-20T21:42:52.262Z,8.36
2023-04-20T21:45:20.277Z,8.36
2023-04-20T21:47:48.411Z,8.37
2023-04-20T21:50:16.649Z,8.33
2023-04-20T21:52:44.707Z,8.33
2023-04-20T21:55:13.188Z,8.40
2023-04-20T21:57:41.214Z,8.35
2023-04-20T22:00:15.534Z,8.36
2023-04-20T22:02:43.888Z,8.38
2023-04-20T22:05:12.164Z,8.36
2023-04-20T22:07:40.526Z,8.27
2023-04-20T22:10:09.688Z,8.23
2023-04-20T22:12:40.474Z,8.22
2023-04-20T22:15:14.808Z,8.15
2023-04-20T22:17:45.419Z,8.16
2023-04-20T22:20:16.217Z,8.16
2023-04-20T22:22:44.314Z,8.12
2023-04-20T22:25:12.470Z,8.24
2023-04-20T22:27:40.832Z,8.22
2023-04-20T22:30:09.852Z,8.22
2023-04-20T22:32:39.465Z,8.12
2023-04-20T22:35:08.330Z,8.09
2023-04-20T22:37:36.595Z,8.07
2023-04-20T22:40:07.599Z,7.92
2023-04-20T22:42:36.106Z,7.97
2023-04-20T22:45:04.891Z,7.87
2023-04-20T22:47:33.087Z,7.86
2023-04-20T22:50:03.378Z,7.84
2023-04-20T22:52:32.088Z,7.86
2023-04-20T22:55:01.054Z,8.01
2023-04-20T22:57:29.122Z,7.99
2023-04-20T22:59:57.239Z,7.95
2023-04-20T23:02:25.544Z,7.98
2023-04-20T23:04:56.888Z,7.91
2023-04-20T23:07:26.348Z,7.98
2023-04-20T23:09:56.524Z,7.95
2023-04-20T23:12:26.259Z,7.94
2023-04-20T23:14:54.920Z,7.92
2023-04-20T23:17:23.532Z,7.95
2023-04-20T23:19:52.645Z,8.00
2023-04-20T23:22:23.296Z,7.94
2023-04-20T23:24:52.876Z,7.89
2023-04-20T23:27:20.954Z,7.85
2023-04-20T23:29:48.998Z,7.82
2023-04-20T23:32:17.023Z,7.79
2023-04-20T23:34:45.942Z,7.84
2023-04-20T23:37:13.967Z,7.77
2023-04-20T23:39:41.971Z,7.77
2023-04-20T23:42:11.431Z,7.68
2023-04-20T23:44:39.445Z,7.71
2023-04-20T23:47:07.465Z,7.65
2023-04-20T23:49:35.623Z,7.59
2023-04-20T23:52:03.711Z,7.59
2023-04-20T23:54:33.243Z,7.59
2023-04-20T23:57:02.752Z,7.59
2023-04-20T23:59:32.283Z,7.58
